createdAt,value
2022-11-29T00:00:07.130Z,98.97
2022-11-29T00:03:05.422Z,99.00
2022-11-29T00:05:58.615Z,98.98
2022-11-29T00:08:51.236Z,99.03
2022-11-29T00:12:03.530Z,99.10
2022-11-29T00:14:55.702Z,99.18
2022-11-29T00:17:48.052Z,99.21
2022-11-29T00:20:41.839Z,99.21
2022-11-29T00:23:34.120Z,99.27
2022-11-29T00:26:26.362Z,99.35
2022-11-29T00:29:19.573Z,99.42
2022-11-29T00:32:11.744Z,99.53
2022-11-29T00:35:09.328Z,99.56
2022-11-29T00:38:01.872Z,99.75
2022-11-29T00:40:55.361Z,99.89
2022-11-29T00:43:47.560Z,99.99
2022-11-29T00:46:40.225Z,99.94
2022-11-29T00:49:32.379Z,99.98
2022-11-29T00:52:24.574Z,99.99
2022-11-29T00:55:17.038Z,100.00
2022-11-29T00:58:09.201Z,100.00
2022-11-29T01:01:01.500Z,100.00
2022-11-29T01:03:53.733Z,100.00
2022-11-29T01:06:45.977Z,100.00
2022-11-29T01:09:38.048Z,100.00
2022-11-29T01:12:30.242Z,99.96
2022-11-29T01:15:22.658Z,99.88
2022-11-29T01:18:15.763Z,99.83
2022-11-29T01:21:10.189Z,99.78
2022-11-29T01:24:02.820Z,99.70
2022-11-29T01:26:54.994Z,99.70
2022-11-29T01:29:47.184Z,99.69
2022-11-29T01:32:39.883Z,99.79
2022-11-29T01:35:32.056Z,99.84
2022-11-29T01:38:24.778Z,99.79
2022-11-29T01:41:18.779Z,99.76
2022-11-29T01:44:47.833Z,99.75
2022-11-29T01:47:45.492Z,99.76
2022-11-29T01:50:38.772Z,99.76
2022-11-29T01:53:31.426Z,99.69
2022-11-29T01:56:25.505Z,99.70
2022-11-29T01:59:23.320Z,99.59
2022-11-29T02:02:19.747Z,99.58
2022-11-29T02:05:13.804Z,99.48
2022-11-29T02:08:07.203Z,99.38
2022-11-29T02:11:14.153Z,99.43
2022-11-29T02:14:23.463Z,99.48
2022-11-29T02:17:29.476Z,99.47
2022-11-29T02:20:54.376Z,99.54
2022-11-29T02:24:28.574Z,99.50
2022-11-29T02:28:04.828Z,99.46
2022-11-29T02:31:44.939Z,99.45
2022-11-29T02:34:57.909Z,99.56
2022-11-29T02:38:10.942Z,99.56
2022-11-29T02:41:31.268Z,99.57
2022-11-29T02:45:01.489Z,99.63
2022-11-29T02:48:08.246Z,99.68
2022-11-29T02:51:08.438Z,99.71
2022-11-29T02:54:08.111Z,99.82
2022-11-29T02:57:05.848Z,99.90
2022-11-29T03:00:05.388Z,99.93
2022-11-29T03:03:04.901Z,99.96
2022-11-29T03:06:09.384Z,99.95
2022-11-29T03:09:09.398Z,99.98
2022-11-29T03:12:10.765Z,99.98
2022-11-29T03:15:18.970Z,99.99
2022-11-29T03:18:33.565Z,100.00
2022-11-29T03:21:44.339Z,100.00
2022-11-29T03:24:43.965Z,99.99
2022-11-29T03:27:42.817Z,99.99
2022-11-29T03:30:39.521Z,100.00
2022-11-29T03:33:39.078Z,100.00
2022-11-29T03:36:38.396Z,100.00
2022-11-29T03:39:39.508Z,99.99
2022-11-29T03:42:42.652Z,100.00
2022-11-29T03:45:40.250Z,100.00
2022-11-29T03:48:37.142Z,100.00
2022-11-29T03:51:41.247Z,100.00
2022-11-29T03:54:55.062Z,100.00
2022-11-29T03:58:10.658Z,100.00
2022-11-29T04:01:32.470Z,100.00
2022-11-29T04:04:45.034Z,100.00
2022-11-29T04:08:03.424Z,100.00
2022-11-29T04:11:20.173Z,100.00
2022-11-29T04:14:34.957Z,100.00
2022-11-29T04:18:02.008Z,100.00
2022-11-29T04:21:31.071Z,100.00
2022-11-29T04:24:52.021Z,100.00
2022-11-29T04:27:54.643Z,100.00
2022-11-29T04:31:01.595Z,100.00
2022-11-29T04:34:16.462Z,100.00
2022-11-29T04:37:23.009Z,100.00
2022-11-29T04:40:38.283Z,100.00
2022-11-29T04:43:55.506Z,100.00
2022-11-29T04:47:06.438Z,100.00
2022-11-29T04:50:19.658Z,100.00
2022-11-29T04:53:30.672Z,100.00
2022-11-29T04:56:32.505Z,100.00
2022-11-29T04:59:32.067Z,100.00
2022-11-29T05:02:34.897Z,100.00
2022-11-29T05:05:36.583Z,99.92
2022-11-29T05:08:42.799Z,99.89
2022-11-29T05:11:49.153Z,99.72
2022-11-29T05:14:52.563Z,99.64
2022-11-29T05:17:56.648Z,99.69
2022-11-29T05:20:54.992Z,99.72
2022-11-29T05:23:57.942Z,99.65
2022-11-29T05:26:57.349Z,99.57
2022-11-29T05:29:56.657Z,99.49
2022-11-29T05:32:59.466Z,99.40
2022-11-29T05:36:08.341Z,99.50
2022-11-29T05:39:17.764Z,99.40
2022-11-29T05:42:37.800Z,99.46
2022-11-29T05:45:34.601Z,99.46
2022-11-29T05:48:31.323Z,99.48
2022-11-29T05:51:35.230Z,99.58
2022-11-29T05:54:32.242Z,99.60
2022-11-29T05:57:32.851Z,99.55
2022-11-29T06:00:26.082Z,99.57
2022-11-29T06:03:27.029Z,99.45
2022-11-29T06:06:27.094Z,99.44
2022-11-29T06:09:25.270Z,99.34
2022-11-29T06:12:21.539Z,99.17
2022-11-29T06:15:43.218Z,99.16
2022-11-29T06:21:51.088Z,99.25
2022-11-29T06:24:56.686Z,99.31
2022-11-29T06:28:11.013Z,99.36
2022-11-29T06:31:13.606Z,99.41
2022-11-29T06:34:13.502Z,99.54
2022-11-29T06:37:15.428Z,99.37
2022-11-29T06:40:13.232Z,99.12
2022-11-29T06:43:06.126Z,99.19
2022-11-29T06:46:02.289Z,99.25
2022-11-29T06:49:02.303Z,99.32
2022-11-29T06:51:59.705Z,99.15
2022-11-29T06:55:04.495Z,99.13
2022-11-29T06:58:07.939Z,99.19
2022-11-29T07:01:08.290Z,99.14
2022-11-29T07:04:17.089Z,99.06
2022-11-29T07:07:14.885Z,98.94
2022-11-29T07:10:15.165Z,98.97
2022-11-29T07:13:08.252Z,99.07
2022-11-29T07:16:07.669Z,99.00
2022-11-29T07:19:10.684Z,99.06
2022-11-29T07:22:15.184Z,99.10
2022-11-29T07:25:19.306Z,99.34
2022-11-29T07:28:23.853Z,99.55
2022-11-29T07:31:26.881Z,99.49
2022-11-29T07:34:27.811Z,99.49
2022-11-29T07:37:27.302Z,99.51
2022-11-29T07:40:25.440Z,99.45
2022-11-29T07:43:31.454Z,99.48
2022-11-29T07:46:24.078Z,99.42
2022-11-29T07:49:16.187Z,99.50
2022-11-29T07:52:08.448Z,99.48
2022-11-29T07:55:00.839Z,99.38
2022-11-29T07:57:54.341Z,99.38
2022-11-29T08:00:47.016Z,99.32
2022-11-29T08:03:39.402Z,99.24
2022-11-29T08:06:31.851Z,99.22
2022-11-29T08:09:24.040Z,99.17
2022-11-29T08:12:16.384Z,99.21
2022-11-29T08:15:11.257Z,99.15
2022-11-29T08:18:04.654Z,99.19
2022-11-29T08:20:56.662Z,99.23
2022-11-29T08:23:52.520Z,99.30
2022-11-29T08:26:44.747Z,99.29
2022-11-29T08:29:36.949Z,99.22
2022-11-29T08:32:31.455Z,99.23
2022-11-29T08:35:25.329Z,99.13
2022-11-29T08:38:18.186Z,99.19
2022-11-29T08:41:15.336Z,99.15
2022-11-29T08:44:09.411Z,99.03
2022-11-29T08:47:19.593Z,98.88
2022-11-29T08:50:16.283Z,98.98
2022-11-29T08:53:26.301Z,98.96
2022-11-29T08:57:10.057Z,98.90
2022-11-29T08:59:33.486Z,98.92
2022-11-29T09:02:25.897Z,98.94
2022-11-29T09:05:18.350Z,98.91
2022-11-29T09:08:10.635Z,98.90
2022-11-29T09:11:08.291Z,98.95
2022-11-29T09:14:02.830Z,98.87
2022-11-29T09:16:55.156Z,98.76
2022-11-29T09:19:55.117Z,98.67
2022-11-29T09:22:47.407Z,98.68
2022-11-29T09:25:39.827Z,98.72
2022-11-29T09:28:33.513Z,98.73
2022-11-29T09:31:27.472Z,98.62
2022-11-29T09:34:19.909Z,98.54
2022-11-29T09:37:15.180Z,98.40
2022-11-29T09:40:09.323Z,98.41
2022-11-29T09:43:08.046Z,98.37
2022-11-29T09:46:09.398Z,98.23
2022-11-29T09:49:25.978Z,98.12
2022-11-29T09:52:29.111Z,98.19
2022-11-29T09:55:40.265Z,98.07
2022-11-29T09:58:40.661Z,98.00
2022-11-29T10:01:36.892Z,97.90
2022-11-29T10:04:32.283Z,97.98
2022-11-29T10:07:29.634Z,97.78
2022-11-29T10:10:27.143Z,97.65
2022-11-29T10:13:25.228Z,97.58
2022-11-29T10:16:22.564Z,97.33
2022-11-29T10:19:22.300Z,97.08
2022-11-29T10:22:22.055Z,96.92
2022-11-29T10:25:24.482Z,97.07
2022-11-29T10:28:20.600Z,96.96
2022-11-29T10:31:21.973Z,96.82
2022-11-29T10:34:18.136Z,96.69
2022-11-29T10:37:15.508Z,96.36
2022-11-29T10:40:15.556Z,95.81
2022-11-29T10:43:09.106Z,95.64
2022-11-29T10:46:02.717Z,95.72
2022-11-29T10:48:56.126Z,95.56
2022-11-29T10:51:48.865Z,95.41
2022-11-29T10:54:44.127Z,95.04
2022-11-29T10:57:36.325Z,94.81
2022-11-29T11:00:30.265Z,94.51
2022-11-29T11:03:29.440Z,94.05
2022-11-29T11:06:23.128Z,93.94
2022-11-29T11:09:23.791Z,93.67
2022-11-29T11:12:23.547Z,92.95
2022-11-29T11:15:30.379Z,92.67
2022-11-29T11:18:26.763Z,92.50
2022-11-29T11:21:20.642Z,92.24
2022-11-29T11:24:25.382Z,92.03
2022-11-29T11:27:31.996Z,91.29
2022-11-29T11:30:27.648Z,90.99
2022-11-29T11:33:23.807Z,90.56
2022-11-29T11:36:23.415Z,90.13
2022-11-29T11:39:22.070Z,89.30
2022-11-29T11:42:35.436Z,88.36
2022-11-29T11:45:33.717Z,87.21
2022-11-29T11:48:25.892Z,86.36
2022-11-29T11:51:27.254Z,86.03
2022-11-29T11:54:19.689Z,85.09
2022-11-29T11:57:22.136Z,83.86
2022-11-29T12:04:03.911Z,79.45
2022-11-29T12:07:01.002Z,77.91
2022-11-29T12:09:57.545Z,76.87
2022-11-29T12:12:53.631Z,76.10
2022-11-29T12:15:50.140Z,75.01
2022-11-29T12:18:49.350Z,74.11
2022-11-29T12:21:54.328Z,73.67
2022-11-29T12:24:54.514Z,74.42
2022-11-29T12:27:47.123Z,75.21
2022-11-29T12:30:43.791Z,75.70
2022-11-29T12:33:47.171Z,75.44
2022-11-29T12:36:45.574Z,75.60
2022-11-29T12:39:57.174Z,76.05
2022-11-29T12:42:58.701Z,75.89
2022-11-29T12:46:01.527Z,75.82
2022-11-29T12:49:01.382Z,75.31
2022-11-29T12:52:01.667Z,75.14
2022-11-29T12:55:05.037Z,74.84
2022-11-29T12:58:08.263Z,74.93
2022-11-29T13:01:12.281Z,74.79
2022-11-29T13:04:15.480Z,74.49
2022-11-29T13:07:17.138Z,74.60
2022-11-29T13:10:30.361Z,74.22
2022-11-29T13:13:33.519Z,74.20
2022-11-29T13:16:40.361Z,74.34
2022-11-29T13:19:40.472Z,74.60
2022-11-29T13:22:40.642Z,74.45
2022-11-29T13:25:38.292Z,75.23
2022-11-29T13:28:33.732Z,75.88
2022-11-29T13:31:29.504Z,76.09
2022-11-29T13:34:31.857Z,76.12
2022-11-29T13:37:31.635Z,76.31
2022-11-29T13:40:33.685Z,76.13
2022-11-29T13:43:35.027Z,76.00
2022-11-29T13:46:34.825Z,76.08
2022-11-29T13:49:54.765Z,76.22
2022-11-29T13:52:48.750Z,76.28
2022-11-29T13:55:48.317Z,76.26
2022-11-29T13:58:42.136Z,76.43
2022-11-29T14:01:46.631Z,76.52
2022-11-29T14:04:45.969Z,76.71
2022-11-29T14:07:58.438Z,76.75
2022-11-29T14:10:52.896Z,76.71
2022-11-29T14:13:52.938Z,76.40
2022-11-29T14:16:48.869Z,76.54
2022-11-29T14:19:41.121Z,76.54
2022-11-29T14:22:33.219Z,76.82
2022-11-29T14:28:44.336Z,76.83
2022-11-29T14:31:57.725Z,76.90
2022-11-29T14:34:55.837Z,77.01
2022-11-29T14:37:57.528Z,76.98
2022-11-29T14:40:58.611Z,76.95
2022-11-29T14:43:51.172Z,76.76
2022-11-29T14:46:43.774Z,76.92
2022-11-29T14:49:44.533Z,76.92
2022-11-29T14:52:41.691Z,77.06
2022-11-29T14:55:36.957Z,76.83
2022-11-29T14:58:28.923Z,76.93
2022-11-29T15:01:22.198Z,76.86
2022-11-29T15:04:15.687Z,77.01
2022-11-29T15:07:14.877Z,77.23
2022-11-29T15:10:15.322Z,77.34
2022-11-29T15:13:11.018Z,77.54
2022-11-29T15:16:23.689Z,77.67
2022-11-29T15:19:45.153Z,77.90
2022-11-29T15:22:47.753Z,78.10
2022-11-29T15:25:49.783Z,78.33
2022-11-29T15:28:42.163Z,78.49
2022-11-29T15:31:34.943Z,78.69
2022-11-29T15:34:33.614Z,78.96
2022-11-29T15:37:40.225Z,79.24
2022-11-29T15:40:35.750Z,79.47
2022-11-29T15:43:31.640Z,79.49
2022-11-29T15:46:28.717Z,79.77
2022-11-29T15:49:26.643Z,80.05
2022-11-29T15:52:25.567Z,80.20
2022-11-29T15:55:18.077Z,80.48
2022-11-29T15:58:15.217Z,80.76
2022-11-29T16:01:08.450Z,80.84
2022-11-29T16:04:01.857Z,81.12
2022-11-29T16:06:54.502Z,81.29
2022-11-29T16:09:49.998Z,81.56
2022-11-29T16:12:54.422Z,81.76
2022-11-29T16:15:46.858Z,81.98
2022-11-29T16:18:41.168Z,82.23
2022-11-29T16:21:34.234Z,82.40
2022-11-29T16:24:27.699Z,82.69
2022-11-29T16:27:22.801Z,83.02
2022-11-29T16:30:24.369Z,83.24
2022-11-29T16:33:23.414Z,83.39
2022-11-29T16:36:18.937Z,83.57
2022-11-29T16:39:23.301Z,83.77
2022-11-29T16:42:24.964Z,83.99
2022-11-29T16:45:39.313Z,84.24
2022-11-29T16:48:38.775Z,84.40
2022-11-29T16:51:39.964Z,84.67
2022-11-29T16:54:34.490Z,84.95
2022-11-29T16:57:26.819Z,85.07
2022-11-29T17:00:34.059Z,85.31
2022-11-29T17:03:26.239Z,85.52
2022-11-29T17:06:21.297Z,85.63
2022-11-29T17:09:22.616Z,85.72
2022-11-29T17:12:15.966Z,85.87
2022-11-29T17:15:10.238Z,85.99
2022-11-29T17:18:02.730Z,86.08
2022-11-29T17:20:57.800Z,86.18
2022-11-29T17:23:50.794Z,86.50
2022-11-29T17:26:43.988Z,86.61
2022-11-29T17:29:36.681Z,86.74
2022-11-29T17:32:29.015Z,86.61
2022-11-29T17:35:21.514Z,86.72
2022-11-29T17:38:14.114Z,86.97
2022-11-29T17:41:12.088Z,87.04
2022-11-29T17:44:04.422Z,87.09
2022-11-29T17:46:56.883Z,87.19
2022-11-29T17:49:49.279Z,87.14
2022-11-29T17:52:42.304Z,87.15
2022-11-29T17:55:34.614Z,87.43
2022-11-29T17:58:26.928Z,87.53
2022-11-29T18:01:21.718Z,87.46
2022-11-29T18:04:13.582Z,87.75
2022-11-29T18:07:05.859Z,87.80
2022-11-29T18:09:58.341Z,87.89
2022-11-29T18:12:50.964Z,87.85
2022-11-29T18:15:45.531Z,88.00
2022-11-29T18:18:38.722Z,87.93
2022-11-29T18:21:33.691Z,87.96
2022-11-29T18:24:25.754Z,88.07
2022-11-29T18:27:18.172Z,87.96
2022-11-29T18:30:12.689Z,87.77
2022-11-29T18:33:05.174Z,87.76
2022-11-29T18:36:03.166Z,87.71
2022-11-29T18:38:59.997Z,87.56
2022-11-29T18:41:55.383Z,87.59
2022-11-29T18:44:48.125Z,87.55
2022-11-29T18:47:40.737Z,87.45
2022-11-29T18:50:33.400Z,87.45
2022-11-29T18:53:26.064Z,87.43
2022-11-29T18:56:22.362Z,87.64
2022-11-29T18:59:17.500Z,87.62
2022-11-29T19:02:10.482Z,87.72
2022-11-29T19:05:02.857Z,87.73
2022-11-29T19:07:55.253Z,87.71
2022-11-29T19:10:47.902Z,87.75
2022-11-29T19:13:40.717Z,87.79
2022-11-29T19:16:34.581Z,87.91
2022-11-29T19:19:27.199Z,87.90
2022-11-29T19:22:19.516Z,87.95
2022-11-29T19:25:12.461Z,87.94
2022-11-29T19:28:09.090Z,87.93
2022-11-29T19:31:06.136Z,87.86
2022-11-29T19:33:59.462Z,87.89
2022-11-29T19:36:51.830Z,87.87
2022-11-29T19:39:44.542Z,87.91
2022-11-29T19:42:37.578Z,87.93
2022-11-29T19:45:32.257Z,88.03
2022-11-29T19:48:24.356Z,88.14
2022-11-29T19:51:18.027Z,88.06
2022-11-29T19:54:12.172Z,88.15
2022-11-29T19:57:04.155Z,88.10
2022-11-29T19:59:56.377Z,88.06
2022-11-29T20:02:48.774Z,87.93
2022-11-29T20:05:41.080Z,87.97
2022-11-29T20:08:33.478Z,87.92
2022-11-29T20:11:27.374Z,88.05
2022-11-29T20:14:19.715Z,88.06
2022-11-29T20:17:11.893Z,88.05
2022-11-29T20:20:03.960Z,88.35
2022-11-29T20:22:56.559Z,88.52
2022-11-29T20:25:53.600Z,88.73
2022-11-29T20:28:46.508Z,88.77
2022-11-29T20:31:44.369Z,88.76
2022-11-29T20:34:41.254Z,88.81
2022-11-29T20:37:50.110Z,89.01
2022-11-29T20:40:52.948Z,89.09
2022-11-29T20:43:49.270Z,89.12
2022-11-29T20:46:41.994Z,89.21
2022-11-29T20:49:35.025Z,89.19
2022-11-29T20:52:39.888Z,89.16
2022-11-29T20:55:32.300Z,89.14
2022-11-29T20:58:26.656Z,89.26
2022-11-29T21:01:18.872Z,89.26
2022-11-29T21:04:11.386Z,89.19
2022-11-29T21:07:03.579Z,89.24
2022-11-29T21:10:00.906Z,89.29
2022-11-29T21:12:54.640Z,89.33
2022-11-29T21:15:48.236Z,89.43
2022-11-29T21:18:41.489Z,89.49
2022-11-29T21:21:42.698Z,89.63
2022-11-29T21:24:48.339Z,89.83
2022-11-29T21:27:41.861Z,89.86
2022-11-29T21:30:34.719Z,89.89
2022-11-29T21:33:27.846Z,90.00
2022-11-29T21:36:20.101Z,89.99
2022-11-29T21:39:16.342Z,89.96
2022-11-29T21:42:08.916Z,90.06
2022-11-29T21:45:01.050Z,90.16
2022-11-29T21:47:53.382Z,90.27
2022-11-29T21:50:50.541Z,90.39
2022-11-29T21:53:43.169Z,90.46
2022-11-29T21:56:35.495Z,90.43
2022-11-29T21:59:28.238Z,90.48
2022-11-29T22:02:20.529Z,90.46
2022-11-29T22:05:12.820Z,90.80
2022-11-29T22:08:05.506Z,90.96
2022-11-29T22:11:05.793Z,91.00
2022-11-29T22:14:18.219Z,90.97
2022-11-29T22:17:10.545Z,91.00
2022-11-29T22:20:02.643Z,90.92
2022-11-29T22:22:58.713Z,90.99
2022-11-29T22:25:51.167Z,91.01
2022-11-29T22:28:43.689Z,91.11
2022-11-29T22:31:36.863Z,91.23
2022-11-29T22:34:29.579Z,91.28
2022-11-29T22:37:21.945Z,91.27
2022-11-29T22:40:15.575Z,91.30
2022-11-29T22:43:07.949Z,91.36
2022-11-29T22:46:06.478Z,91.49
2022-11-29T22:49:00.707Z,91.50
2022-11-29T22:51:52.641Z,91.56
2022-11-29T22:54:45.314Z,91.69
2022-11-29T22:57:37.744Z,91.91
2022-11-29T23:00:30.237Z,91.95
2022-11-29T23:03:22.584Z,91.91
2022-11-29T23:06:20.284Z,91.90
2022-11-29T23:09:16.302Z,91.92
2022-11-29T23:12:09.527Z,91.85
2022-11-29T23:15:02.958Z,91.76
2022-11-29T23:17:55.168Z,91.82
2022-11-29T23:20:47.737Z,91.87
2022-11-29T23:23:40.359Z,91.85
2022-11-29T23:26:41.909Z,91.88
2022-11-29T23:29:33.920Z,91.90
2022-11-29T23:32:26.209Z,91.86
2022-11-29T23:35:18.799Z,91.89
2022-11-29T23:38:11.033Z,91.97
2022-11-29T23:41:03.481Z,91.95
2022-11-29T23:43:55.663Z,91.97
2022-11-29T23:46:47.863Z,92.13
2022-11-29T23:49:40.159Z,92.12
2022-11-29T23:52:32.311Z,92.05
2022-11-29T23:55:25.116Z,92.04
2022-11-29T23:58:17.293Z,92.09
